Peleus — V2FV2 — position and weather

sailwx.info

Track history (hours):
 
Tides and Currents Weather Stations Pressure Air Temp Water Temp Dewpoint Dewpoint Depression Visibility Wind Speed Wind Dir Waves Ship Positions

Peleus

Last reported at 2016-Feb-09 22:33 UTC. Time now 2016-Feb-09 22:36 UTC.
Position N 51°41' E 004°36'.

Length 88 m; draft 3.4 m.

Type: Cargo ship. MMSI: 305810000.

Date/timePositionNaut miles runAvg speedWind from/ knotsBaromVisibWave heightAir tempDewpointWater temp
2016-Feb-09 22:33N 51°41' E 004°36'4 4.1
2016-Feb-09 21:33N 51°45' E 004°38'7 7.5
2016-Feb-09 20:33N 51°50' E 004°28'8 8.0
2016-Feb-09 19:33N 51°54' E 004°17'8 8.1
2016-Feb-09 18:33N 51°59' E 004°07'1111.2
2016-Feb-09 17:33N 52°00' E 003°49'64 7.8
2016-Feb-09 09:20N 52°26' E 002°12'810.5
2016-Feb-09 08:33N 52°33' E 002°07'1212.2
2016-Feb-09 07:33N 52°43' E 001°56'1212.0
2016-Feb-09 06:33N 52°52' E 001°43'1111.1
2016-Feb-09 05:33N 53°00' E 001°31'10 9.7
2016-Feb-09 04:33N 53°08' E 001°19'9 9.0
2016-Feb-09 03:33N 53°14' E 001°09'8 8.3
2016-Feb-09 02:33N 53°20' E 000°59'8 8.2
2016-Feb-09 01:31N 53°23' E 000°46'9 8.6
2016-Feb-09 00:30N 53°26' E 000°33'9 9.2
2016-Feb-08 23:33N 53°30' E 000°19'1111.4
2016-Feb-08 22:34N 53°35' E 000°02'9 9.0
2016-Feb-08 21:33N 53°39' W 000°11'0 0.0
2016-Feb-08 20:33N 53°39' W 000°11'6 5.6
2016-Feb-08 19:33N 53°43' W 000°17'1110.4
2016-Feb-08 18:29N 53°44' W 000°36'  
2016-Feb-04 01:33N 53°43' W 000°35'1010.2
2016-Feb-04 00:34N 53°43' W 000°18'8 8.3
2016-Feb-03 23:33N 53°38' W 000°08'7 7.1
2016-Feb-03 22:33N 53°35' E 000°03'9 8.7
2016-Feb-03 21:33N 53°33' E 000°18'5 5.4
2016-Feb-03 20:34N 53°35' E 000°26'0 0.1
2016-Feb-03 19:32N 53°35' E 000°26'0 0.0
2016-Feb-03 18:32N 53°35' E 000°26'0 0.1
2016-Feb-03 17:23N 53°35' E 000°26'0 0.1
2016-Feb-03 16:23N 53°35' E 000°26'19 2.7
2016-Feb-03 09:26N 53°23' E 000°50'1010.2
2016-Feb-03 08:30N 53°18' E 001°04'1010.9
2016-Feb-03 07:33N 53°10' E 001°15'1111.2
2016-Feb-03 06:34N 53°02' E 001°28'1111.2
2016-Feb-03 05:34N 52°54' E 001°41'1110.6
2016-Feb-03 04:33N 52°46' E 001°53'10 9.7
2016-Feb-03 03:34N 52°37' E 001°55'10 9.9
2016-Feb-03 02:33N 52°27' E 001°54'1010.2
2016-Feb-03 01:33N 52°17' E 001°52'1110.7
2016-Feb-03 00:34N 52°06' E 001°51'1111.2
2016-Feb-02 23:33N 51°55' E 001°49'1111.4
2016-Feb-02 22:34N 51°44' E 001°49'1010.4
2016-Feb-02 21:34N 51°34' E 001°43'1211.8
2016-Feb-02 20:34N 51°29' E 001°26'1212.4
2016-Feb-02 19:33N 51°29' E 001°06'1110.9
2016-Feb-02 18:33N 51°28' E 000°49'1010.1
2016-Feb-02 17:33N 51°24' E 000°34'1 0.7
2016-Feb-02 16:32N 51°24' E 000°33'0 0.0
2016-Feb-02 15:29N 51°24' E 000°33'0 0.0
2016-Feb-02 14:32N 51°24' E 000°33'0 0.0
2016-Feb-02 13:29N 51°24' E 000°33'0 0.0
2016-Feb-02 12:23N 51°24' E 000°33'0 0.0
2016-Feb-02 11:23N 51°24' E 000°33'0 0.0
2016-Feb-02 10:32N 51°24' E 000°33'0 0.0
2016-Feb-02 09:32N 51°24' E 000°33'0 0.0
2016-Feb-02 08:32N 51°24' E 000°33'0 0.0
2016-Feb-02 07:32N 51°24' E 000°33'0 0.0
2016-Feb-02 06:32N 51°24' E 000°33'0 0.0
2016-Feb-02 05:29N 51°24' E 000°33'0 0.3
2016-Feb-02 04:33N 51°24' E 000°33'2 1.7
2016-Feb-02 03:34N 51°25' E 000°36'1110.6
2016-Feb-02 02:33N 51°29' E 000°51'6 4.5
2016-Feb-02 01:13N 51°31' E 001°00'0 0.0
2016-Feb-02 00:31N 51°31' E 001°00'0 0.0
2016-Feb-01 23:31N 51°31' E 001°00'0 0.0
2016-Feb-01 22:31N 51°31' E 001°00'0 0.1
2016-Feb-01 21:34N 51°31' E 001°00'2 1.9
2016-Feb-01 20:33N 51°29' E 001°00'9 8.6
2016-Feb-01 19:32N 51°29' E 001°14'9 9.2
2016-Feb-01 18:33N 51°29' E 001°29'1010.3
2016-Feb-01 17:33N 51°20' E 001°38'1111.3
2016-Feb-01 16:34N 51°09' E 001°40'1110.8
2016-Feb-01 15:33N 51°00' E 001°31'1211.5
2016-Feb-01 14:33N 50°50' E 001°23'312 9.8
2016-Jan-31 06:33N 48°21' W 005°41'8 8.4
2016-Jan-31 05:33N 48°14' W 005°35'8 8.4
2016-Jan-31 04:33N 48°07' W 005°29'8 8.4
2016-Jan-31 03:33N 47°59' W 005°23'8 8.2
2016-Jan-31 02:33N 47°54' W 005°14'8 8.1
2016-Jan-31 01:33N 47°49' W 005°04'8 8.1
2016-Jan-31 00:33N 47°43' W 004°56'  
Track history (hours):
 
Tides and Currents Weather Stations Pressure Air Temp Water Temp Dewpoint Dewpoint Depression Visibility Wind Speed Wind Dir Waves Ship Positions

Peleus

Last reported at 2016-Feb-09 22:33 UTC. Time now 2016-Feb-09 22:36 UTC.
Position N 51°41' E 004°36'.

Length 88 m; draft 3.4 m.

Type: Cargo ship. MMSI: 305810000.

Date/timePositionNaut miles runAvg speedWind from/ knotsBaromVisibWave heightAir tempDewpointWater temp
2016-Feb-09 22:33N 51°41' E 004°36'4 4.1
2016-Feb-09 21:33N 51°45' E 004°38'7 7.5
2016-Feb-09 20:33N 51°50' E 004°28'8 8.0
2016-Feb-09 19:33N 51°54' E 004°17'8 8.1
2016-Feb-09 18:33N 51°59' E 004°07'1111.2
2016-Feb-09 17:33N 52°00' E 003°49'64 7.8
2016-Feb-09 09:20N 52°26' E 002°12'810.5
2016-Feb-09 08:33N 52°33' E 002°07'1212.2
2016-Feb-09 07:33N 52°43' E 001°56'1212.0
2016-Feb-09 06:33N 52°52' E 001°43'1111.1
2016-Feb-09 05:33N 53°00' E 001°31'10 9.7
2016-Feb-09 04:33N 53°08' E 001°19'9 9.0
2016-Feb-09 03:33N 53°14' E 001°09'8 8.3
2016-Feb-09 02:33N 53°20' E 000°59'8 8.2
2016-Feb-09 01:31N 53°23' E 000°46'9 8.6
2016-Feb-09 00:30N 53°26' E 000°33'9 9.2
2016-Feb-08 23:33N 53°30' E 000°19'1111.4
2016-Feb-08 22:34N 53°35' E 000°02'9 9.0
2016-Feb-08 21:33N 53°39' W 000°11'0 0.0
2016-Feb-08 20:33N 53°39' W 000°11'6 5.6
2016-Feb-08 19:33N 53°43' W 000°17'1110.4
2016-Feb-08 18:29N 53°44' W 000°36'  
2016-Feb-04 01:33N 53°43' W 000°35'1010.2
2016-Feb-04 00:34N 53°43' W 000°18'8 8.3
2016-Feb-03 23:33N 53°38' W 000°08'7 7.1
2016-Feb-03 22:33N 53°35' E 000°03'9 8.7
2016-Feb-03 21:33N 53°33' E 000°18'5 5.4
2016-Feb-03 20:34N 53°35' E 000°26'0 0.1
2016-Feb-03 19:32N 53°35' E 000°26'0 0.0
2016-Feb-03 18:32N 53°35' E 000°26'0 0.1
2016-Feb-03 17:23N 53°35' E 000°26'0 0.1
2016-Feb-03 16:23N 53°35' E 000°26'19 2.7
2016-Feb-03 09:26N 53°23' E 000°50'1010.2
2016-Feb-03 08:30N 53°18' E 001°04'1010.9
2016-Feb-03 07:33N 53°10' E 001°15'1111.2
2016-Feb-03 06:34N 53°02' E 001°28'1111.2
2016-Feb-03 05:34N 52°54' E 001°41'1110.6
2016-Feb-03 04:33N 52°46' E 001°53'10 9.7
2016-Feb-03 03:34N 52°37' E 001°55'10 9.9
2016-Feb-03 02:33N 52°27' E 001°54'1010.2
2016-Feb-03 01:33N 52°17' E 001°52'1110.7
2016-Feb-03 00:34N 52°06' E 001°51'1111.2
2016-Feb-02 23:33N 51°55' E 001°49'1111.4
2016-Feb-02 22:34N 51°44' E 001°49'1010.4
2016-Feb-02 21:34N 51°34' E 001°43'1211.8
2016-Feb-02 20:34N 51°29' E 001°26'1212.4
2016-Feb-02 19:33N 51°29' E 001°06'1110.9
2016-Feb-02 18:33N 51°28' E 000°49'1010.1
2016-Feb-02 17:33N 51°24' E 000°34'1 0.7
2016-Feb-02 16:32N 51°24' E 000°33'0 0.0
2016-Feb-02 15:29N 51°24' E 000°33'0 0.0
2016-Feb-02 14:32N 51°24' E 000°33'0 0.0
2016-Feb-02 13:29N 51°24' E 000°33'0 0.0
2016-Feb-02 12:23N 51°24' E 000°33'0 0.0
2016-Feb-02 11:23N 51°24' E 000°33'0 0.0
2016-Feb-02 10:32N 51°24' E 000°33'0 0.0
2016-Feb-02 09:32N 51°24' E 000°33'0 0.0
2016-Feb-02 08:32N 51°24' E 000°33'0 0.0
2016-Feb-02 07:32N 51°24' E 000°33'0 0.0
2016-Feb-02 06:32N 51°24' E 000°33'0 0.0
2016-Feb-02 05:29N 51°24' E 000°33'0 0.3
2016-Feb-02 04:33N 51°24' E 000°33'2 1.7
2016-Feb-02 03:34N 51°25' E 000°36'1110.6
2016-Feb-02 02:33N 51°29' E 000°51'6 4.5
2016-Feb-02 01:13N 51°31' E 001°00'0 0.0
2016-Feb-02 00:31N 51°31' E 001°00'0 0.0
2016-Feb-01 23:31N 51°31' E 001°00'0 0.0
2016-Feb-01 22:31N 51°31' E 001°00'0 0.1
2016-Feb-01 21:34N 51°31' E 001°00'2 1.9
2016-Feb-01 20:33N 51°29' E 001°00'9 8.6
2016-Feb-01 19:32N 51°29' E 001°14'9 9.2
2016-Feb-01 18:33N 51°29' E 001°29'1010.3
2016-Feb-01 17:33N 51°20' E 001°38'1111.3
2016-Feb-01 16:34N 51°09' E 001°40'1110.8
2016-Feb-01 15:33N 51°00' E 001°31'1211.5
2016-Feb-01 14:33N 50°50' E 001°23'312 9.8
2016-Jan-31 06:33N 48°21' W 005°41'8 8.4
2016-Jan-31 05:33N 48°14' W 005°35'8 8.4
2016-Jan-31 04:33N 48°07' W 005°29'8 8.4
2016-Jan-31 03:33N 47°59' W 005°23'8 8.2
2016-Jan-31 02:33N 47°54' W 005°14'8 8.1
2016-Jan-31 01:33N 47°49' W 005°04'8 8.1
2016-Jan-31 00:33N 47°43' W 004°56'  

Dump ship's entire track history